Terminal Aerodrome Forecast
Issued by NWS

Home | Current Version | Previous Version | Text Only | Print | Product List | Glossary On
Versions: 1 2 3 4 5 6 7 8 9 10 11 12 13 14 15 16 17 18
000
FTUS45 KABQ 250500
TAFSAF
TAF
KSAF 250520Z 2506/2606 01005KT P6SM FEW150
     FM251700 28010KT P6SM FEW100
     FM252100 25012G19KT P6SM SCT100
     FM260200 27008KT P6SM FEW150=

USA.gov is the U.S. government's official web portal to all federal, state and local government web resources and services.